Time;durP1;ratioP1;P1;durP2;ratioP2;P2;SDS_P1;SDS_P2;PMS_P1;PMS_P2;Temp;Humidity;BMP_temperature;BMP_pressure;BME280_temperature;BME280_humidity;BME280_pressure;Samples;Min_cycle;Max_cycle;Signal;HPM_P1;HPM_P2
2023/02/08 00:01:35;;;;;;;22.02;17.77;;;-1.20;99.90;;;;;;7367582;19;20026;-62
2023/02/08 00:04:01;;;;;;;22.35;16.95;;;-1.20;99.90;;;;;;7365217;19;20364;-59
2023/02/08 00:06:27;;;;;;;21.83;15.57;;;-1.20;99.90;;;;;;7368953;19;20018;-62
2023/02/08 00:08:53;;;;;;;20.20;17.27;;;-1.30;99.90;;;;;;7369510;19;20051;-62
2023/02/08 00:11:19;;;;;;;21.67;16.33;;;-1.40;99.90;;;;;;7372259;19;20845;-62
2023/02/08 00:13:46;;;;;;;21.20;17.13;;;-1.40;99.90;;;;;;7369213;19;20109;-59
2023/02/08 00:16:13;;;;;;;25.92;18.40;;;-1.40;99.90;;;;;;7369504;19;20743;-62
2023/02/08 00:18:40;;;;;;;23.63;16.02;;;-1.40;99.90;;;;;;7372913;19;20006;-62
2023/02/08 00:21:11;;;;;;;21.90;16.40;;;-1.40;99.90;;;;;;7369652;19;20041;-62
2023/02/08 00:23:37;;;;;;;25.15;17.30;;;-1.40;99.90;;;;;;7369415;19;20014;-62
2023/02/08 00:26:04;;;;;;;25.55;16.98;;;-1.40;99.90;;;;;;7369191;19;20022;-58
2023/02/08 00:28:30;;;;;;;24.60;17.42;;;-1.50;99.90;;;;;;7370828;19;20616;-59
2023/02/08 00:30:57;;;;;;;20.92;16.33;;;-1.50;99.90;;;;;;7372878;19;20090;-62
2023/02/08 00:33:24;;;;;;;22.75;17.23;;;-1.50;99.90;;;;;;7370289;19;20453;-59
2023/02/08 00:35:50;;;;;;;22.08;17.70;;;-1.50;99.90;;;;;;7372757;19;20018;-58
2023/02/08 00:38:18;;;;;;;24.35;17.63;;;-1.50;99.90;;;;;;7369395;19;20405;-59
2023/02/08 00:40:45;;;;;;;21.35;16.63;;;-1.50;99.90;;;;;;7367651;19;20019;-56
2023/02/08 00:43:12;;;;;;;23.60;17.70;;;-1.50;99.90;;;;;;7367997;19;20086;-58
2023/02/08 00:45:38;;;;;;;22.60;18.15;;;-1.60;99.90;;;;;;7370661;19;20951;-57
2023/02/08 00:48:04;;;;;;;22.60;17.58;;;-1.60;99.90;;;;;;7370455;19;20090;-61
2023/02/08 00:50:30;;;;;;;25.08;17.73;;;-1.60;99.90;;;;;;7371111;19;20117;-62
2023/02/08 00:52:58;;;;;;;23.05;18.70;;;-1.60;99.90;;;;;;7369305;19;20765;-62
2023/02/08 00:55:24;;;;;;;23.60;18.42;;;-1.60;99.90;;;;;;7370268;19;20022;-62
2023/02/08 00:57:51;;;;;;;24.23;18.98;;;-1.60;99.90;;;;;;7371143;19;20320;-62
2023/02/08 01:00:17;;;;;;;25.77;19.98;;;-1.70;99.90;;;;;;7371661;19;20022;-58
2023/02/08 01:02:43;;;;;;;25.20;18.10;;;-1.70;99.90;;;;;;7372125;19;20037;-63
2023/02/08 01:05:10;;;;;;;22.85;18.27;;;-1.70;99.90;;;;;;7369047;19;20014;-63
2023/02/08 01:07:39;;;;;;;24.60;19.83;;;-1.70;99.90;;;;;;7370929;19;20021;-63
2023/02/08 01:10:08;;;;;;;25.60;19.20;;;-1.70;99.90;;;;;;7369590;19;20030;-63
2023/02/08 01:12:34;;;;;;;24.48;19.02;;;-1.80;99.90;;;;;;7370624;19;20512;-59
2023/02/08 01:15:00;;;;;;;25.77;18.45;;;-1.80;99.90;;;;;;7369169;19;20038;-61
2023/02/08 01:17:26;;;;;;;27.90;18.90;;;-1.80;99.90;;;;;;7379733;19;20025;-59
2023/02/08 01:19:53;;;;;;;25.30;19.70;;;-1.80;99.90;;;;;;7375721;19;20374;-59
2023/02/08 01:22:19;;;;;;;26.70;19.23;;;-1.80;99.90;;;;;;7376679;19;20712;-58
2023/02/08 01:24:45;;;;;;;32.22;18.95;;;-1.90;99.90;;;;;;7371554;19;20018;-59
2023/02/08 01:27:11;;;;;;;26.25;18.55;;;-1.80;99.90;;;;;;7376128;19;20022;-62
2023/02/08 01:29:37;;;;;;;24.58;17.25;;;-1.90;99.90;;;;;;7373879;19;20006;-62
2023/02/08 01:32:06;;;;;;;25.92;18.17;;;-1.80;99.90;;;;;;7374652;19;20078;-60
2023/02/08 01:34:32;;;;;;;23.50;18.70;;;-1.90;99.90;;;;;;7376950;19;20041;-58
2023/02/08 01:36:58;;;;;;;24.48;19.98;;;-1.90;99.90;;;;;;7370919;19;20022;-61
2023/02/08 01:39:24;;;;;;;25.92;20.05;;;-1.90;99.90;;;;;;7376402;19;20255;-57
2023/02/08 01:41:51;;;;;;;26.00;19.52;;;-1.80;99.90;;;;;;7375713;19;20027;-62
2023/02/08 01:44:18;;;;;;;25.38;19.30;;;-1.90;99.90;;;;;;7373444;19;20022;-62
2023/02/08 01:46:47;;;;;;;25.70;18.83;;;-1.90;99.90;;;;;;7375937;19;20018;-62
2023/02/08 01:49:30;;;;;;;24.42;18.85;;;-1.90;99.90;;;;;;7374115;19;20450;-59
2023/02/08 01:52:04;;;;;;;25.92;18.95;;;-2.00;99.90;;;;;;7371452;19;20735;-58
2023/02/08 01:54:37;;;;;;;23.25;18.20;;;-1.90;99.90;;;;;;7374957;19;20045;-62
2023/02/08 01:57:03;;;;;;;;;;;-2.00;99.90;;;;;;7374382;19;20024;-58
2023/02/08 01:59:37;;;;;;;27.52;19.83;;;-2.00;99.90;;;;;;7376382;19;19929;-61
2023/02/08 02:02:06;;;;;;;27.73;20.20;;;-2.00;99.90;;;;;;7376251;19;20488;-58
2023/02/08 02:04:34;;;;;;;27.63;20.75;;;-2.00;99.90;;;;;;7373848;19;20022;-60
2023/02/08 02:07:02;;;;;;;27.80;21.45;;;-2.00;99.90;;;;;;7375649;19;20019;-61
2023/02/08 02:09:42;;;;;;;24.52;20.38;;;-2.00;99.90;;;;;;7373193;19;20880;-63
2023/02/08 02:12:10;;;;;;;27.13;20.38;;;-2.00;99.90;;;;;;7377238;19;20038;-58
2023/02/08 02:14:37;;;;;;;26.20;20.48;;;-2.00;99.90;;;;;;7376055;19;20373;-58
2023/02/08 02:17:05;;;;;;;25.85;20.42;;;-2.10;99.90;;;;;;7376424;19;20017;-58
2023/02/08 02:20:06;;;;;;;27.92;21.33;;;-2.10;99.90;;;;;;7377353;19;20021;-58
2023/02/08 02:22:38;;;;;;;26.25;19.75;;;-2.10;99.90;;;;;;7373011;19;20037;-58
2023/02/08 02:25:18;;;;;;;;;;;-2.00;99.90;;;;;;7370255;19;20038;-58
2023/02/08 02:27:47;;;;;;;24.45;18.98;;;-2.10;99.90;;;;;;7373509;19;20674;-58
2023/02/08 02:30:55;;;;;;;25.02;19.27;;;-2.10;99.90;;;;;;7373032;19;20022;-57
2023/02/08 02:33:47;;;;;;;28.10;20.20;;;-2.10;99.90;;;;;;7369483;19;20022;-58
2023/02/08 02:36:20;;;;;;;28.25;19.02;;;-2.10;99.90;;;;;;7371181;19;20044;-58
2023/02/08 02:39:01;;;;;;;29.63;20.63;;;-2.10;99.90;;;;;;7369930;19;20015;-61
2023/02/08 02:45:09;;;;;;;28.55;21.67;;;-2.20;99.90;;;;;;7366808;19;20018;-58
2023/02/08 02:47:58;;;;;;;28.70;22.05;;;-2.20;99.90;;;;;;7373205;19;20018;-58
2023/02/08 02:50:39;;;;;;;27.35;21.23;;;-2.20;99.90;;;;;;7372727;19;20045;-58
2023/02/08 02:53:23;;;;;;;31.38;23.05;;;-2.20;99.90;;;;;;7370211;19;20018;-58
2023/02/08 02:55:57;;;;;;;28.83;21.38;;;-2.20;99.90;;;;;;7373668;19;20010;-59
2023/02/08 02:58:26;;;;;;;25.90;19.92;;;-2.20;99.90;;;;;;7372665;19;20018;-59
2023/02/08 03:00:57;;;;;;;27.40;21.05;;;-2.30;99.90;;;;;;7371498;19;20011;-61
2023/02/08 03:03:26;;;;;;;28.10;20.17;;;-2.30;99.90;;;;;;7372683;19;20027;-59
2023/02/08 03:06:01;;;;;;;27.90;21.23;;;-2.30;99.90;;;;;;7371499;19;20018;-62
2023/02/08 03:08:46;;;;;;;28.23;21.83;;;-2.30;99.90;;;;;;7375102;19;20637;-58
2023/02/08 03:11:17;;;;;;;27.45;21.00;;;-2.40;99.90;;;;;;7373161;19;20045;-58
2023/02/08 03:13:58;;;;;;;27.30;21.23;;;-2.40;99.90;;;;;;7372079;19;20775;-61
2023/02/08 03:16:47;;;;;;;28.10;21.02;;;-2.40;99.90;;;;;;7371465;19;20026;-58
2023/02/08 03:19:36;;;;;;;27.35;19.92;;;-2.40;99.90;;;;;;7374283;19;20389;-59
2023/02/08 03:22:14;;;;;;;29.45;21.00;;;-2.40;99.90;;;;;;7369862;19;20014;-62
2023/02/08 03:24:53;;;;;;;27.63;20.70;;;-2.40;99.90;;;;;;7370106;19;20627;-59
2023/02/08 03:27:34;;;;;;;28.35;21.02;;;-2.40;99.90;;;;;;7371376;19;20018;-59
2023/02/08 03:30:15;;;;;;;24.50;19.55;;;-2.50;99.90;;;;;;7371191;19;20051;-62
2023/02/08 03:32:51;;;;;;;27.52;20.17;;;-2.50;99.90;;;;;;7369659;19;20022;-62
2023/02/08 03:35:31;;;;;;;25.08;19.67;;;-2.50;99.90;;;;;;7371726;19;20025;-59
2023/02/08 03:38:15;;;;;;;26.48;20.17;;;-2.50;99.90;;;;;;7372079;19;20019;-62
2023/02/08 03:40:44;;;;;;;24.73;19.73;;;-2.50;99.90;;;;;;7374556;19;20041;-63
2023/02/08 03:43:15;;;;;;;26.77;20.00;;;-2.50;99.90;;;;;;7372038;19;20018;-59
2023/02/08 03:45:49;;;;;;;32.78;23.60;;;-2.50;99.90;;;;;;7371130;19;20022;-62
2023/02/08 03:48:18;;;;;;;29.02;22.00;;;-2.50;99.90;;;;;;7371434;19;20037;-62
2023/02/08 03:50:49;;;;;;;29.27;22.85;;;-2.50;99.90;;;;;;7371206;19;20023;-62
2023/02/08 03:53:19;;;;;;;28.35;21.83;;;-2.50;99.90;;;;;;7373243;19;20047;-61
2023/02/08 03:55:48;;;;;;;29.83;21.75;;;-2.50;99.90;;;;;;7373222;19;20098;-58
2023/02/08 03:58:22;;;;;;;30.55;22.63;;;-2.60;99.90;;;;;;7369341;19;20018;-58
2023/02/08 04:01:18;;;;;;;30.60;22.50;;;-2.60;99.90;;;;;;7369582;19;20013;-58
2023/02/08 04:03:48;;;;;;;28.02;22.20;;;-2.60;99.90;;;;;;7367373;19;20485;-58
2023/02/08 04:06:16;;;;;;;30.77;21.73;;;-2.60;99.90;;;;;;7368478;19;20038;-61
2023/02/08 04:08:42;;;;;;;25.75;20.55;;;-2.60;99.90;;;;;;7366896;19;20021;-62
2023/02/08 04:11:08;;;;;;;26.25;20.90;;;-2.60;99.90;;;;;;7369768;19;20010;-58
2023/02/08 04:13:35;;;;;;;29.40;22.92;;;-2.50;99.90;;;;;;7366087;19;20019;-58
2023/02/08 04:16:01;;;;;;;30.65;24.38;;;-2.60;99.90;;;;;;7367092;19;20023;-58
2023/02/08 04:18:27;;;;;;;29.48;23.05;;;-2.60;99.90;;;;;;7368228;19;20051;-58
2023/02/08 04:20:53;;;;;;;31.67;23.95;;;-2.50;99.90;;;;;;7365916;19;20021;-59
2023/02/08 04:23:19;;;;;;;33.47;23.27;;;-2.50;99.90;;;;;;7366132;19;20734;-58
2023/02/08 04:25:46;;;;;;;36.28;24.38;;;-2.60;99.90;;;;;;7361343;19;20018;-62
2023/02/08 04:28:12;;;;;;;32.80;24.92;;;-2.60;99.90;;;;;;7367771;19;20014;-60
2023/02/08 04:30:38;;;;;;;32.05;23.65;;;-2.50;99.90;;;;;;7366732;19;20010;-60
2023/02/08 04:33:04;;;;;;;32.78;23.90;;;-2.60;99.90;;;;;;7364592;19;20074;-57
2023/02/08 04:35:31;;;;;;;29.90;23.00;;;-2.50;99.90;;;;;;7366632;19;20018;-63
2023/02/08 04:37:57;;;;;;;31.73;24.27;;;-2.60;99.90;;;;;;7366704;19;20030;-62
2023/02/08 04:40:24;;;;;;;31.92;24.52;;;-2.50;99.90;;;;;;7363472;19;20081;-59
2023/02/08 04:42:50;;;;;;;33.50;24.27;;;-2.50;99.90;;;;;;7368218;19;20151;-58
2023/02/08 04:45:19;;;;;;;35.08;24.92;;;-2.50;99.90;;;;;;7361939;19;20054;-59
2023/02/08 04:47:46;;;;;;;31.20;24.20;;;-2.50;99.90;;;;;;7365942;19;20007;-62
2023/02/08 04:50:13;;;;;;;34.95;24.70;;;-2.50;99.90;;;;;;7364985;19;20014;-62
2023/02/08 04:52:39;;;;;;;32.70;24.20;;;-2.50;99.90;;;;;;7370722;19;20496;-63
2023/02/08 04:55:05;;;;;;;30.67;24.40;;;-2.50;99.90;;;;;;7373677;19;20015;-62
2023/02/08 04:57:32;;;;;;;32.08;23.35;;;-2.60;99.90;;;;;;7371987;19;20048;-62
2023/02/08 04:59:58;;;;;;;30.23;24.20;;;-2.60;99.90;;;;;;7373928;19;20029;-58
2023/02/08 05:02:24;;;;;;;32.70;25.00;;;-2.60;99.90;;;;;;7372712;19;20023;-58
2023/02/08 05:04:50;;;;;;;29.75;24.02;;;-2.60;99.90;;;;;;7367746;19;20033;-58
2023/02/08 05:07:17;;;;;;;34.85;24.38;;;-2.60;99.90;;;;;;7372383;19;20022;-58
2023/02/08 05:09:43;;;;;;;31.45;24.35;;;-2.70;99.90;;;;;;7372017;19;20377;-62
2023/02/08 05:12:09;;;;;;;31.52;23.70;;;-2.60;99.90;;;;;;7373396;19;20113;-58
2023/02/08 05:14:36;;;;;;;31.70;24.08;;;-2.70;99.90;;;;;;7369672;19;20022;-63
2023/02/08 05:17:02;;;;;;;32.67;23.92;;;-2.70;99.90;;;;;;7370819;19;20053;-58
2023/02/08 05:19:29;;;;;;;33.33;24.75;;;-2.70;99.90;;;;;;7370781;19;20911;-58
2023/02/08 05:21:55;;;;;;;36.15;25.65;;;-2.60;99.90;;;;;;7368122;19;20022;-61
2023/02/08 05:24:21;;;;;;;35.33;25.40;;;-2.70;99.90;;;;;;7371605;19;20014;-62
2023/02/08 05:26:47;;;;;;;29.98;23.95;;;-2.70;99.90;;;;;;7367887;19;20025;-59
2023/02/08 05:29:14;;;;;;;32.35;25.65;;;-2.70;99.90;;;;;;7366960;19;20033;-58
2023/02/08 05:31:40;;;;;;;32.88;24.27;;;-2.70;99.90;;;;;;7369133;19;21900;-59
2023/02/08 05:34:06;;;;;;;32.58;25.45;;;-2.70;99.90;;;;;;7366584;19;20043;-59
2023/02/08 05:36:33;;;;;;;32.67;24.20;;;-2.70;99.90;;;;;;7364853;19;20033;-59
2023/02/08 05:38:59;;;;;;;36.28;25.83;;;-2.70;99.90;;;;;;7365722;19;20022;-59
2023/02/08 05:41:25;;;;;;;36.67;25.58;;;-2.60;99.90;;;;;;7364415;19;20052;-63
2023/02/08 05:43:51;;;;;;;35.20;25.67;;;-2.70;99.90;;;;;;7367646;19;20022;-63
2023/02/08 05:46:18;;;;;;;34.38;25.77;;;-2.70;99.90;;;;;;7365180;19;20019;-63
2023/02/08 05:48:45;;;;;;;33.65;26.08;;;-2.70;99.90;;;;;;7372480;19;20806;-63
2023/02/08 05:51:11;;;;;;;33.25;23.85;;;-2.70;99.90;;;;;;7364073;19;20018;-63
2023/02/08 05:53:37;;;;;;;34.78;25.55;;;-2.70;99.90;;;;;;7369734;19;20098;-63
2023/02/08 05:56:04;;;;;;;30.08;23.83;;;-2.70;99.90;;;;;;7370040;19;20022;-63
2023/02/08 05:58:30;;;;;;;34.45;24.73;;;-2.80;99.90;;;;;;7371592;19;20567;-63
2023/02/08 06:00:56;;;;;;;33.28;24.80;;;-2.70;99.90;;;;;;7363644;19;20022;-63
2023/02/08 06:03:22;;;;;;;33.25;24.98;;;-2.80;99.90;;;;;;7363895;19;20447;-64
2023/02/08 06:05:49;;;;;;;35.95;25.65;;;-2.80;99.90;;;;;;7362239;19;20029;-63
2023/02/08 06:08:15;;;;;;;36.15;24.88;;;-2.80;99.90;;;;;;7365992;19;20047;-63
2023/02/08 06:10:42;;;;;;;32.92;24.63;;;-2.70;99.90;;;;;;7362126;19;20025;-65
2023/02/08 06:13:08;;;;;;;35.47;26.63;;;-2.80;99.90;;;;;;7365105;19;20771;-64
2023/02/08 06:15:34;;;;;;;35.22;25.45;;;-2.70;99.90;;;;;;7367083;19;20109;-63
2023/02/08 06:18:00;;;;;;;36.60;27.23;;;-2.70;99.90;;;;;;7365952;19;20049;-62
2023/02/08 06:20:26;;;;;;;34.08;23.08;;;-2.70;99.90;;;;;;7364889;19;20019;-59
2023/02/08 06:22:54;;;;;;;36.55;25.38;;;-2.70;99.90;;;;;;7363961;19;20014;-59
2023/02/08 06:25:20;;;;;;;32.50;24.73;;;-2.70;99.90;;;;;;7362552;19;20493;-59
2023/02/08 06:27:46;;;;;;;33.28;24.25;;;-2.80;99.90;;;;;;7365104;19;20126;-60
2023/02/08 06:30:13;;;;;;;33.70;24.95;;;-2.80;99.90;;;;;;7364260;19;20031;-59
2023/02/08 06:32:39;;;;;;;33.47;25.92;;;-2.80;99.90;;;;;;7365898;19;20481;-59
2023/02/08 06:35:06;;;;;;;35.42;25.88;;;-2.80;99.90;;;;;;7363482;19;20018;-58
2023/02/08 06:37:32;;;;;;;32.88;24.42;;;-2.80;99.90;;;;;;7365425;19;20494;-59
2023/02/08 06:40:00;;;;;;;37.33;25.38;;;-2.80;99.90;;;;;;7362442;19;20015;-59
2023/02/08 06:42:27;;;;;;;32.33;25.02;;;-2.90;99.90;;;;;;7364907;19;20094;-59
2023/02/08 06:44:54;;;;;;;33.15;25.13;;;-2.90;99.90;;;;;;7364483;19;20022;-59
2023/02/08 06:47:22;;;;;;;36.35;25.55;;;-2.80;99.90;;;;;;7365021;19;20027;-63
2023/02/08 06:49:49;;;;;;;37.70;25.92;;;-2.80;99.90;;;;;;7365702;19;20957;-60
2023/02/08 06:52:16;;;;;;;35.95;26.77;;;-2.80;99.90;;;;;;7361352;19;20476;-59
2023/02/08 06:54:42;;;;;;;38.05;26.48;;;-2.80;99.90;;;;;;7362925;19;20942;-59
2023/02/08 06:57:11;;;;;;;39.35;27.58;;;-2.80;99.90;;;;;;7364360;19;20129;-59
2023/02/08 06:59:45;;;;;;;35.33;26.05;;;-2.80;99.90;;;;;;7363736;19;20057;-59
2023/02/08 07:02:14;;;;;;;35.55;27.55;;;-2.80;99.90;;;;;;7363733;19;20018;-59
2023/02/08 07:04:41;;;;;;;35.33;26.65;;;-2.80;99.90;;;;;;7366769;19;20027;-59
2023/02/08 07:07:08;;;;;;;36.83;26.10;;;-2.80;99.90;;;;;;7362468;19;20019;-59
2023/02/08 07:09:35;;;;;;;32.75;25.42;;;-2.70;99.90;;;;;;7366190;19;20018;-60
2023/02/08 07:12:03;;;;;;;34.33;26.17;;;-2.70;99.90;;;;;;7365223;19;20566;-62
2023/02/08 07:14:32;;;;;;;38.28;27.02;;;-2.80;99.90;;;;;;7367040;19;20027;-63
2023/02/08 07:16:59;;;;;;;52.42;35.78;;;-2.80;99.90;;;;;;7369010;19;20627;-53
2023/02/08 07:19:26;;;;;;;38.88;27.13;;;-2.80;99.90;;;;;;7369730;19;20022;-64
2023/02/08 07:21:52;;;;;;;32.67;25.45;;;-2.70;99.90;;;;;;7365156;19;20031;-63
2023/02/08 07:24:19;;;;;;;38.90;27.92;;;-2.70;99.90;;;;;;7368047;19;20020;-62
2023/02/08 07:26:45;;;;;;;39.55;27.38;;;-2.70;99.90;;;;;;7373331;19;20015;-63
2023/02/08 07:29:11;;;;;;;33.33;25.20;;;-2.70;99.90;;;;;;7368118;19;21032;-62
2023/02/08 07:31:37;;;;;;;33.65;26.65;;;-2.70;99.90;;;;;;7370952;19;20603;-63
2023/02/08 07:34:04;;;;;;;36.42;26.10;;;-2.70;99.90;;;;;;7365893;19;20018;-63
2023/02/08 07:36:30;;;;;;;36.40;25.42;;;-2.70;99.90;;;;;;7369914;19;20470;-63
2023/02/08 07:38:57;;;;;;;36.00;26.85;;;-2.70;99.90;;;;;;7365979;19;20018;-62
2023/02/08 07:41:23;;;;;;;37.90;27.33;;;-2.60;99.90;;;;;;7369339;19;20033;-65
2023/02/08 07:43:49;;;;;;;38.35;26.38;;;-2.60;99.90;;;;;;7368242;19;20023;-65
2023/02/08 07:46:19;;;;;;;37.55;27.15;;;-2.60;99.90;;;;;;7365545;19;20018;-65
2023/02/08 07:48:46;;;;;;;37.50;27.65;;;-2.50;99.90;;;;;;7367651;19;20496;-62
2023/02/08 07:51:12;;;;;;;39.20;27.27;;;-2.40;99.90;;;;;;7361313;19;20022;-61
2023/02/08 07:53:40;;;;;;;38.30;27.77;;;-2.30;99.90;;;;;;7367162;19;20040;-61
2023/02/08 07:56:06;;;;;;;35.53;25.67;;;-2.30;99.90;;;;;;7363593;19;20386;-66
2023/02/08 07:58:33;;;;;;;36.55;26.67;;;-2.20;99.90;;;;;;7364006;19;20477;-65
2023/02/08 08:00:59;;;;;;;39.28;26.17;;;-2.10;99.90;;;;;;7365752;19;20149;-65
2023/02/08 08:03:26;;;;;;;38.72;27.92;;;-2.00;99.90;;;;;;7365073;19;20022;-65
2023/02/08 08:05:52;;;;;;;36.83;27.80;;;-1.80;99.90;;;;;;7362300;19;20010;-64
2023/02/08 08:08:19;;;;;;;34.15;27.15;;;-1.50;99.90;;;;;;7362186;19;20083;-65
2023/02/08 08:10:45;;;;;;;35.25;26.75;;;-1.30;99.90;;;;;;7366406;19;20018;-61
2023/02/08 08:13:12;;;;;;;38.53;27.75;;;-1.10;99.90;;;;;;7358099;19;20370;-61
2023/02/08 08:15:39;;;;;;;35.97;25.73;;;-1.00;99.90;;;;;;7364875;19;20022;-62
2023/02/08 08:18:07;;;;;;;39.28;27.10;;;-0.90;99.90;;;;;;7362840;19;20015;-62
2023/02/08 08:20:33;;;;;;;34.05;25.10;;;-0.90;99.90;;;;;;7365194;19;20018;-62
2023/02/08 08:23:00;;;;;;;35.03;25.73;;;-0.80;99.90;;;;;;7363810;19;20078;-61
2023/02/08 08:25:27;;;;;;;34.20;25.80;;;-0.60;99.90;;;;;;7366252;19;20043;-62
2023/02/08 08:27:54;;;;;;;36.78;26.35;;;-0.50;99.90;;;;;;7362801;19;20106;-61
2023/02/08 08:30:21;;;;;;;34.30;26.25;;;-0.30;99.90;;;;;;7364862;19;20543;-61
2023/02/08 08:32:47;;;;;;;34.60;26.02;;;0.00;99.90;;;;;;7361315;19;20077;-62
2023/02/08 08:35:14;;;;;;;33.83;26.25;;;0.20;99.90;;;;;;7362475;19;20015;-62
2023/02/08 08:37:40;;;;;;;32.40;26.20;;;0.50;99.90;;;;;;7366121;19;20029;-61
2023/02/08 08:40:07;;;;;;;32.90;24.30;;;0.60;99.90;;;;;;7365007;19;20025;-61
2023/02/08 08:42:35;;;;;;;31.15;24.17;;;1.00;99.90;;;;;;7363792;19;20022;-61
2023/02/08 08:45:02;;;;;;;32.08;25.13;;;1.50;99.90;;;;;;7365317;19;20047;-62
2023/02/08 08:47:29;;;;;;;33.35;27.23;;;2.00;99.90;;;;;;7366993;19;20137;-63
2023/02/08 08:49:55;;;;;;;27.45;22.80;;;2.80;99.90;;;;;;7357770;19;20034;-63
2023/02/08 08:52:22;;;;;;;29.42;21.58;;;3.60;99.90;;;;;;7359943;19;20026;-63
2023/02/08 08:54:48;;;;;;;27.90;22.92;;;4.30;99.90;;;;;;7364630;19;20018;-63
2023/02/08 08:57:15;;;;;;;27.13;22.50;;;4.60;99.90;;;;;;7361488;19;20014;-66
2023/02/08 08:59:42;;;;;;;25.83;21.50;;;5.20;99.90;;;;;;7368488;19;21496;-66
2023/02/08 09:02:12;;;;;;;24.63;21.10;;;5.40;99.90;;;;;;7365794;19;20022;-66
2023/02/08 09:04:41;;;;;;;24.50;21.45;;;5.60;99.90;;;;;;7364536;19;20102;-66
2023/02/08 09:07:09;;;;;;;25.20;21.60;;;6.10;99.90;;;;;;7361917;19;20846;-66
2023/02/08 09:09:35;;;;;;;23.85;21.23;;;6.40;99.90;;;;;;7361734;19;20045;-67
2023/02/08 09:12:03;;;;;;;25.25;21.33;;;6.90;99.90;;;;;;7357858;19;20022;-62
2023/02/08 09:14:29;;;;;;;23.00;20.58;;;7.20;99.90;;;;;;7364929;19;20041;-62
2023/02/08 09:16:55;;;;;;;27.40;21.27;;;7.30;99.90;;;;;;7364568;19;20516;-68
2023/02/08 09:19:22;;;;;;;22.85;20.45;;;7.40;99.90;;;;;;7363218;19;20025;-70
2023/02/08 09:21:48;;;;;;;22.65;19.70;;;7.70;99.90;;;;;;7357779;19;20014;-79
2023/02/08 09:24:15;;;;;;;24.95;21.35;;;8.00;99.90;;;;;;7361361;19;20033;-81
2023/02/08 09:26:42;;;;;;;24.40;20.55;;;8.40;99.90;;;;;;7363347;19;20022;-80
2023/02/08 09:29:08;;;;;;;22.90;20.08;;;8.80;99.90;;;;;;7362900;19;21018;-74
2023/02/08 09:31:36;;;;;;;22.30;19.45;;;8.80;99.90;;;;;;7356882;19;20801;-69
2023/02/08 09:34:04;;;;;;;21.75;19.45;;;9.40;99.90;;;;;;7361787;19;20022;-69
2023/02/08 09:36:38;;;;;;;21.58;18.92;;;9.60;99.90;;;;;;7365466;19;20023;-70
2023/02/08 09:39:08;;;;;;;22.42;18.67;;;9.50;99.90;;;;;;7370620;19;20019;-70
2023/02/08 09:41:47;;;;;;;21.88;18.60;;;9.40;99.90;;;;;;7371086;19;20301;-69
2023/02/08 09:44:37;;;;;;;20.13;17.35;;;9.90;99.90;;;;;;7370436;19;20703;-70
2023/02/08 09:47:21;;;;;;;20.60;18.30;;;10.50;99.90;;;;;;7374227;19;20021;-69
2023/02/08 09:50:00;;;;;;;21.38;17.88;;;10.70;80.90;;;;;;7372675;19;20470;-76
2023/02/08 09:52:43;;;;;;;20.08;17.63;;;10.90;97.90;;;;;;7370631;19;20014;-77
2023/02/08 09:55:37;;;;;;;21.23;18.38;;;10.70;91.70;;;;;;7369937;19;20664;-76
2023/02/08 09:58:25;;;;;;;20.30;17.38;;;11.40;92.30;;;;;;7365662;19;20014;-74
2023/02/08 10:00:53;;;;;;;19.88;17.77;;;11.50;72.30;;;;;;7374523;19;20029;-75
2023/02/08 10:03:35;;;;;;;19.42;16.98;;;11.80;80.20;;;;;;7367955;19;20592;-74
2023/02/08 10:06:03;;;;;;;20.77;17.20;;;12.00;68.50;;;;;;7368542;19;20018;-74
2023/02/08 10:08:30;;;;;;;18.65;16.63;;;12.00;71.50;;;;;;7367993;19;20019;-75
2023/02/08 10:11:22;;;;;;;19.10;16.25;;;12.70;85.20;;;;;;7370074;19;20018;-68
2023/02/08 10:13:57;;;;;;;18.73;16.83;;;12.40;66.50;;;;;;7370860;19;20980;-73
2023/02/08 10:17:13;;;;;;;19.40;16.20;;;12.60;68.30;;;;;;7368179;19;20022;-73
2023/02/08 10:20:11;;;;;;;20.15;18.02;;;13.00;61.40;;;;;;7368407;19;20419;-73
2023/02/08 10:22:50;;;;;;;18.58;16.77;;;13.10;67.00;;;;;;7373238;19;20875;-73
2023/02/08 10:25:29;;;;;;;18.02;16.23;;;12.50;66.50;;;;;;7365217;19;20053;-72
2023/02/08 10:28:20;;;;;;;20.13;17.55;;;12.80;64.70;;;;;;7368213;19;20407;-72
2023/02/08 10:30:58;;;;;;;16.80;15.15;;;13.10;62.50;;;;;;7368606;19;20022;-67
2023/02/08 10:33:39;;;;;;;15.57;14.00;;;13.10;62.30;;;;;;7367302;19;20029;-72
2023/02/08 10:36:19;;;;;;;18.00;15.82;;;13.00;57.80;;;;;;7370329;19;20473;-72
2023/02/08 10:38:48;;;;;;;16.17;14.48;;;12.70;59.00;;;;;;7361976;19;20030;-71
2023/02/08 10:41:20;;;;;;;16.45;14.80;;;12.60;61.10;;;;;;7367921;19;20018;-71
2023/02/08 10:44:17;;;;;;;19.10;15.13;;;13.00;60.50;;;;;;7365558;19;20018;-70
2023/02/08 10:46:52;;;;;;;16.27;14.45;;;13.00;59.40;;;;;;7365885;19;20760;-71
2023/02/08 10:49:57;;;;;;;15.85;14.23;;;12.40;58.90;;;;;;7366334;19;20531;-71
2023/02/08 10:52:23;;;;;;;16.90;14.45;;;12.30;60.10;;;;;;7364637;19;20493;-66
2023/02/08 10:54:51;;;;;;;18.08;15.30;;;12.70;60.30;;;;;;7363407;19;20022;-67
2023/02/08 10:57:31;;;;;;;17.20;14.90;;;12.60;59.80;;;;;;7365462;19;20010;-66
2023/02/08 10:59:57;;;;;;;16.38;14.30;;;12.90;59.70;;;;;;7367958;19;20023;-65
2023/02/08 11:02:38;;;;;;;15.82;14.23;;;13.20;61.40;;;;;;7366948;19;20022;-66
2023/02/08 11:05:08;;;;;;;15.38;13.77;;;13.30;59.60;;;;;;7366164;19;20040;-66
2023/02/08 11:07:35;;;;;;;15.30;13.70;;;13.70;58.00;;;;;;7367299;19;20014;-65
2023/02/08 11:10:24;;;;;;;14.90;13.02;;;14.20;57.90;;;;;;7370370;19;20014;-66
2023/02/08 11:12:55;;;;;;;16.92;13.10;;;14.60;53.40;;;;;;7363731;19;20022;-71
2023/02/08 11:15:26;;;;;;;16.13;13.48;;;14.80;53.90;;;;;;7363952;19;20082;-70
2023/02/08 11:18:01;;;;;;;15.43;12.85;;;14.80;54.20;;;;;;7364944;19;20078;-70
2023/02/08 11:20:35;;;;;;;13.20;11.80;;;15.10;53.70;;;;;;7366022;19;20029;-71
2023/02/08 11:23:04;;;;;;;12.68;11.25;;;14.90;51.40;;;;;;7365537;19;20477;-69
2023/02/08 11:25:34;;;;;;;12.75;11.18;;;14.80;52.20;;;;;;7364255;19;20019;-65
2023/02/08 11:28:01;;;;;;;13.02;10.73;;;14.90;51.50;;;;;;7364716;19;20023;-65
2023/02/08 11:30:27;;;;;;;13.65;12.18;;;14.80;50.90;;;;;;7366348;19;20022;-65
2023/02/08 11:33:17;;;;;;;12.85;11.45;;;14.60;50.60;;;;;;7364796;19;20021;-65
2023/02/08 11:35:59;;;;;;;13.95;11.48;;;14.70;50.20;;;;;;7366692;19;20412;-65
2023/02/08 11:38:27;;;;;;;16.23;11.65;;;14.60;50.20;;;;;;7371128;19;20037;-65
2023/02/08 11:41:01;;;;;;;12.30;10.85;;;14.80;51.00;;;;;;7371068;19;20035;-65
2023/02/08 11:43:30;;;;;;;12.02;10.82;;;14.60;51.80;;;;;;7368020;19;20022;-65
2023/02/08 11:46:02;;;;;;;15.18;11.63;;;15.10;51.50;;;;;;7361125;19;20019;-66
2023/02/08 11:48:44;;;;;;;12.60;11.30;;;15.10;50.30;;;;;;7367791;19;20994;-67
2023/02/08 11:51:21;;;;;;;12.65;11.18;;;14.60;49.40;;;;;;7367072;19;20014;-70
2023/02/08 11:53:48;;;;;;;15.13;11.88;;;14.50;49.40;;;;;;7368834;19;20015;-69
2023/02/08 11:56:20;;;;;;;13.07;11.63;;;14.30;50.40;;;;;;7364715;19;20018;-70
2023/02/08 11:59:26;;;;;;;15.57;11.43;;;14.50;50.30;;;;;;7368722;19;20025;-68
2023/02/08 12:01:54;;;;;;;9.98;8.13;;;14.70;49.90;;;;;;7363798;19;20018;-72
2023/02/08 12:04:21;;;;;;;12.70;10.82;;;15.10;50.50;;;;;;7355967;19;20026;-71
2023/02/08 12:07:19;;;;;;;14.18;10.80;;;15.10;49.40;;;;;;7365452;19;20133;-71
2023/02/08 12:09:48;;;;;;;12.80;11.10;;;15.50;47.60;;;;;;7366194;19;20789;-70
2023/02/08 12:12:32;;;;;;;13.18;11.68;;;15.30;49.10;;;;;;7367171;19;20174;-70
2023/02/08 12:15:17;;;;;;;12.68;11.38;;;15.20;49.10;;;;;;7362721;19;20104;-71
2023/02/08 12:18:11;;;;;;;11.77;10.50;;;15.10;49.50;;;;;;7364620;19;21709;-70
2023/02/08 12:20:45;;;;;;;11.52;9.98;;;15.40;49.00;;;;;;7364911;19;20022;-71
2023/02/08 12:23:30;;;;;;;13.18;11.07;;;15.20;47.60;;;;;;7362398;19;20018;-70
2023/02/08 12:26:14;;;;;;;11.38;10.13;;;14.90;47.70;;;;;;7360219;19;20066;-70
2023/02/08 12:29:01;;;;;;;10.02;8.75;;;15.00;48.20;;;;;;7365051;19;20043;-70
2023/02/08 12:32:02;;;;;;;10.40;9.30;;;14.80;45.50;;;;;;7366664;19;20436;-64
2023/02/08 12:34:50;;;;;;;9.52;7.88;;;15.40;44.50;;;;;;7363025;19;20029;-65
2023/02/08 12:43:17;;;;;;;9.20;8.30;;;16.20;44.80;;;;;;7366648;19;20032;-65
2023/02/08 12:46:00;;;;;;;10.25;8.20;;;16.40;44.60;;;;;;7356074;19;20804;-65
2023/02/08 12:48:50;;;;;;;9.02;8.05;;;16.30;43.20;;;;;;7364450;19;20767;-65
2023/02/08 12:51:33;;;;;;;10.13;7.80;;;16.10;42.40;;;;;;7360944;19;20094;-65
2023/02/08 12:54:17;;;;;;;9.00;7.68;;;16.40;43.20;;;;;;7359168;19;20013;-65
2023/02/08 12:56:46;;;;;;;9.15;8.13;;;16.80;43.60;;;;;;7357501;19;20019;-65
2023/02/08 12:59:36;;;;;;;10.23;8.00;;;16.80;44.00;;;;;;7356435;19;21463;-70